Time;durP1;ratioP1;P1;durP2;ratioP2;P2;SDS_P1;SDS_P2;PMS_P1;PMS_P2;Temp;Humidity;BMP_temperature;BMP_pressure;BME280_temperature;BME280_humidity;BME280_pressure;Samples;Min_cycle;Max_cycle;Signal;HPM_P1;HPM_P2
2021/09/02 00:02:02;;;;;;;;;;;;;;;15.52;60.03;100308.34;4403498;32;20010;-90
2021/09/02 00:04:28;;;;;;;;;;;;;;;15.53;60.03;100320.56;4403620;32;19979;-90
2021/09/02 00:06:53;;;;;;;;;;;;;;;15.49;60.04;100319.84;4403968;32;20071;-90
2021/09/02 00:09:18;;;;;;;;;;;;;;;15.54;60.03;100323.09;4404497;32;20020;-90
2021/09/02 00:11:44;;;;;;;;;;;;;;;15.61;60.04;100311.47;4406598;32;19990;-90
2021/09/02 00:14:09;;;;;;;;;;;;;;;15.60;60.04;100316.78;4403597;32;20347;-90
2021/09/02 00:16:34;;;;;;;;;;;;;;;15.55;60.04;100316.94;4390806;32;20001;-90
2021/09/02 00:18:59;;;;;;;;;;;;;;;15.50;60.04;100313.66;4403670;32;20021;-89
2021/09/02 00:21:24;;;;;;;;;;;;;;;15.39;60.02;100320.31;4402823;32;20046;-90
2021/09/02 00:23:50;;;;;;;;;;;;;;;15.38;60.02;100329.06;4402896;32;20030;-90
2021/09/02 00:26:15;;;;;;;;;;;;;;;15.32;60.03;100325.78;4403018;32;20024;-91
2021/09/02 00:28:40;;;;;;;;;;;;;;;15.29;60.02;100336.41;4405094;32;20323;-93
2021/09/02 00:31:05;;;;;;;;;;;;;;;15.09;60.02;100328.53;4404695;32;20018;-92
2021/09/02 00:33:31;;;;;;;;;;;;;;;15.17;60.02;100323.84;4404508;32;19982;-91
2021/09/02 00:35:56;;;;;;;;;;;;;;;14.98;60.01;100334.22;4403973;32;20044;-91
2021/09/02 00:38:21;;;;;;;;;;;;;;;15.14;60.01;100337.09;4404725;32;20002;-93
2021/09/02 00:40:46;;;;;;;;;;;;;;;15.04;60.01;100339.22;4404099;32;20268;-91
2021/09/02 00:43:11;;;;;;;;;;;;;;;14.93;60.00;100341.44;4390458;32;19998;-91
2021/09/02 00:45:37;;;;;;;;;;;;;;;14.96;60.01;100338.69;4402982;32;19986;-91
2021/09/02 00:48:02;;;;;;;;;;;;;;;15.00;60.00;100350.75;4403247;32;19982;-90
2021/09/02 00:50:28;;;;;;;;;;;;;;;14.96;60.01;100335.22;4403406;32;20014;-91
2021/09/02 00:52:53;;;;;;;;;;;;;;;15.04;60.01;100344.44;4404412;32;20042;-92
2021/09/02 00:55:19;;;;;;;;;;;;;;;15.11;60.01;100336.31;4403499;32;20296;-91
2021/09/02 00:57:44;;;;;;;;;;;;;;;15.15;60.01;100336.16;4403000;32;19995;-91
2021/09/02 01:00:10;;;;;;;;;;;;;;;15.09;60.00;100336.38;4402931;32;20021;-91
2021/09/02 01:02:35;;;;;;;;;;;;;;;14.94;60.01;100335.28;4402909;32;19994;-90
2021/09/02 01:05:01;;;;;;;;;;;;;;;14.71;59.98;100343.19;4402774;32;20005;-90
2021/09/02 01:07:26;;;;;;;;;;;;;;;14.87;60.00;100346.03;4402764;32;19989;-92
2021/09/02 01:09:55;;;;;;;;;;;;;;;14.79;60.00;100340.25;4402528;32;20010;-91
2021/09/02 01:12:44;;;;;;;;;;;;;;;14.90;60.00;100338.91;4403943;32;19986;-89
2021/09/02 01:15:09;;;;;;;;;;;;;;;14.89;60.00;100344.22;4400360;32;20029;-90
2021/09/02 01:17:34;;;;;;;;;;;;;;;14.68;59.99;100340.69;4404464;32;19982;-90
2021/09/02 01:20:00;;;;;;;;;;;;;;;14.74;59.99;100348.31;4404473;32;20312;-89
2021/09/02 01:22:26;;;;;;;;;;;;;;;14.59;59.99;100346.28;4404490;32;20049;-90
2021/09/02 01:24:52;;;;;;;;;;;;;;;14.84;60.00;100340.94;4404413;32;20050;-91
2021/09/02 01:27:17;;;;;;;;;;;;;;;14.76;59.99;100348.25;4404637;32;20001;-89
2021/09/02 01:29:43;;;;;;;;;;;;;;;14.59;59.98;100346.28;4404507;32;20020;-91
2021/09/02 01:32:08;;;;;;;;;;;;;;;14.60;59.99;100350.59;4404281;32;19998;-90
2021/09/02 01:34:33;;;;;;;;;;;;;;;14.75;59.99;100352.63;4404128;32;20126;-91
2021/09/02 01:36:58;;;;;;;;;;;;;;;14.65;59.99;100356.50;4392469;32;20324;-90
2021/09/02 01:39:23;;;;;;;;;;;;;;;14.59;59.98;100354.16;4404008;32;20033;-89
2021/09/02 01:41:49;;;;;;;;;;;;;;;14.50;59.98;100359.75;4404242;32;19990;-90
2021/09/02 01:44:14;;;;;;;;;;;;;;;14.51;59.98;100358.84;4404629;32;19987;-92
2021/09/02 01:46:39;;;;;;;;;;;;;;;14.63;59.98;100356.56;4404282;32;19989;-91
2021/09/02 01:49:04;;;;;;;;;;;;;;;14.86;60.00;100349.56;4404575;32;20006;-90
2021/09/02 01:51:30;;;;;;;;;;;;;;;14.78;59.99;100351.66;4404435;32;20354;-90
2021/09/02 01:53:55;;;;;;;;;;;;;;;14.76;59.99;100343.88;4404239;32;20079;-89
2021/09/02 01:56:20;;;;;;;;;;;;;;;14.71;60.00;100343.19;4404126;32;19994;-89
2021/09/02 01:58:45;;;;;;;;;;;;;;;14.65;59.99;100346.03;4403617;32;23133;-89
2021/09/02 02:01:11;;;;;;;;;;;;;;;14.67;59.99;100349.47;4404202;32;20009;-88
2021/09/02 02:03:36;;;;;;;;;;;;;;;14.66;59.99;100340.72;4404100;32;19983;-90
2021/09/02 02:06:01;;;;;;;;;;;;;;;14.66;59.99;100348.59;4403371;32;24497;-87
2021/09/02 02:08:26;;;;;;;;;;;;;;;15.03;60.01;100342.75;4392597;32;19978;-89
2021/09/02 02:10:52;;;;;;;;;;;;;;;14.97;60.00;100350.88;4403764;32;20002;-88
2021/09/02 02:13:17;;;;;;;;;;;;;;;14.80;60.00;100353.31;4403359;32;30510;-88
2021/09/02 02:15:42;;;;;;;;;;;;;;;14.71;59.98;100356.31;4403436;32;24264;-89
2021/09/02 02:18:07;;;;;;;;;;;;;;;14.55;59.98;100353.41;4391979;32;26868;-89
2021/09/02 02:20:32;;;;;;;;;;;;;;;14.58;59.98;100355.06;4403465;32;27856;-91
2021/09/02 02:23:03;;;;;;;;;;;;;;;14.51;59.98;100361.47;4404558;32;19982;-88
2021/09/02 02:25:28;;;;;;;;;;;;;;;14.59;59.98;100359.37;4403878;32;19971;-90
2021/09/02 02:27:53;;;;;;;;;;;;;;;14.66;59.99;100345.13;4404124;32;20305;-90
2021/09/02 02:30:19;;;;;;;;;;;;;;;14.49;59.98;100348.41;4404285;32;19990;-90
2021/09/02 02:32:44;;;;;;;;;;;;;;;14.47;59.97;100347.62;4404868;32;20016;-92
2021/09/02 02:35:09;;;;;;;;;;;;;;;14.60;59.98;100353.22;4405261;32;20013;-93
2021/09/02 02:37:34;;;;;;;;;;;;;;;14.66;59.99;100345.13;4405308;32;20362;-91
2021/09/02 02:40:00;;;;;;;;;;;;;;;14.79;60.00;100348.13;4404372;32;20006;-90
2021/09/02 02:42:25;;;;;;;;;;;;;;;14.71;59.98;100345.81;4404185;32;19978;-91
2021/09/02 02:44:50;;;;;;;;;;;;;;;14.64;59.99;100344.31;4405106;32;19998;-93
2021/09/02 02:47:16;;;;;;;;;;;;;;;14.42;59.98;100339.03;4404947;32;20334;-92
2021/09/02 02:49:41;;;;;;;;;;;;;;;14.47;59.97;100341.53;4405434;32;19990;-92
2021/09/02 02:52:06;;;;;;;;;;;;;;;14.41;59.98;100334.72;4405272;32;19990;-92
2021/09/02 02:54:32;;;;;;;;;;;;;;;14.30;59.96;100340.38;4404813;32;19974;-91
2021/09/02 02:56:57;;;;;;;;;;;;;;;14.38;59.97;100340.91;4404502;32;20006;-92
2021/09/02 02:59:22;;;;;;;;;;;;;;;14.50;59.97;100334.41;4404922;32;20292;-91
2021/09/02 03:01:47;;;;;;;;;;;;;;;14.38;59.97;100338.31;4391719;32;20033;-92
2021/09/02 03:04:13;;;;;;;;;;;;;;;14.61;59.98;100332.22;4405057;32;19993;-91
2021/09/02 03:06:38;;;;;;;;;;;;;;;14.30;59.96;100340.38;4404572;32;20106;-92
2021/09/02 03:09:03;;;;;;;;;;;;;;;14.21;59.96;100334.63;4404222;32;20404;-90
2021/09/02 03:11:29;;;;;;;;;;;;;;;14.42;59.98;100331.19;4404469;32;20005;-91
2021/09/02 03:13:54;;;;;;;;;;;;;;;14.28;59.96;100334.34;4404587;32;19982;-91
2021/09/02 03:16:19;;;;;;;;;;;;;;;14.17;59.95;100331.25;4392886;32;19974;-91
2021/09/02 03:18:44;;;;;;;;;;;;;;;14.14;59.96;100344.47;4403986;32;20013;-92
2021/09/02 03:21:10;;;;;;;;;;;;;;;14.30;59.96;100332.50;4404152;32;20012;-90
2021/09/02 03:23:35;;;;;;;;;;;;;;;14.23;59.96;100335.44;4404628;32;21484;-93
2021/09/02 03:26:00;;;;;;;;;;;;;;;14.20;59.96;100339.03;4405033;32;20040;-93
2021/09/02 03:28:25;;;;;;;;;;;;;;;14.05;59.95;100335.19;4404729;32;20283;-92
2021/09/02 03:30:51;;;;;;;;;;;;;;;14.17;59.95;100338.25;4404727;32;19987;-92
2021/09/02 03:33:16;;;;;;;;;;;;;;;14.14;59.96;100345.31;4404442;32;20323;-93
2021/09/02 03:35:41;;;;;;;;;;;;;;;14.14;59.96;100355.78;4404007;32;19990;-92
2021/09/02 03:38:06;;;;;;;;;;;;;;;13.98;59.95;100351.19;4404655;32;20420;-93
2021/09/02 03:40:32;;;;;;;;;;;;;;;14.15;59.96;100351.41;4404931;32;19978;-92
2021/09/02 03:42:57;;;;;;;;;;;;;;;14.25;59.96;100347.56;4405174;32;19988;-90
2021/09/02 03:45:22;;;;;;;;;;;;;;;14.27;59.97;100345.72;4392034;32;20006;-91
2021/09/02 03:47:48;;;;;;;;;;;;;;;14.31;59.96;100349.06;4404429;32;20309;-90
2021/09/02 03:50:13;;;;;;;;;;;;;;;14.36;59.97;100349.75;4390882;32;20001;-91
2021/09/02 03:52:38;;;;;;;;;;;;;;;14.36;59.97;100342.75;4403640;32;20028;-89
2021/09/02 03:55:04;;;;;;;;;;;;;;;14.43;59.97;100343.38;4404704;32;19979;-92
2021/09/02 03:57:29;;;;;;;;;;;;;;;14.37;59.96;100349.69;4404666;32;20320;-93
2021/09/02 03:59:54;;;;;;;;;;;;;;;14.47;59.97;100346.78;4404625;32;20021;-95
2021/09/02 04:02:19;;;;;;;;;;;;;;;14.36;59.97;100350.59;4403690;32;20035;-91
2021/09/02 04:04:59;;;;;;;;;;;;;;;14.38;59.97;100347.94;4403963;32;19998;-93
2021/09/02 04:07:24;;;;;;;;;;;;;;;14.48;59.97;100345.84;4404867;32;20351;-93
2021/09/02 04:09:49;;;;;;;;;;;;;;;14.39;59.96;100354.88;4404798;32;20057;-94
2021/09/02 04:12:15;;;;;;;;;;;;;;;14.59;59.98;100347.12;4405955;32;19986;-93
2021/09/02 04:14:40;;;;;;;;;;;;;;;14.36;59.97;100361.09;4405723;32;19995;-90
2021/09/02 04:17:05;;;;;;;;;;;;;;;14.32;59.96;100351.63;4403576;32;20305;-92
2021/09/02 04:19:30;;;;;;;;;;;;;;;14.51;59.98;100350.97;4403647;32;19982;-91
2021/09/02 04:21:56;;;;;;;;;;;;;;;14.50;59.98;100347.50;4403529;32;20016;-91
2021/09/02 04:24:21;;;;;;;;;;;;;;;14.46;59.97;100347.69;4403803;32;20375;-93
2021/09/02 04:26:46;;;;;;;;;;;;;;;14.52;59.98;100344.81;4404501;32;19991;-92
2021/09/02 04:29:14;;;;;;;;;;;;;;;14.55;59.98;100353.41;4406001;32;19978;-95
2021/09/02 04:31:39;;;;;;;;;;;;;;;14.68;59.99;100353.81;4404325;32;19982;-91
2021/09/02 04:34:04;;;;;;;;;;;;;;;14.67;59.99;100358.19;4402264;32;22117;-89
2021/09/02 04:36:30;;;;;;;;;;;;;;;14.64;59.99;100354.81;4392436;32;23526;-94
2021/09/02 04:38:55;;;;;;;;;;;;;;;14.64;59.99;100355.66;4405416;32;20021;-94
2021/09/02 04:41:20;;;;;;;;;;;;;;;14.50;59.98;100360.59;4404957;32;20372;-92
2021/09/02 04:43:45;;;;;;;;;;;;;;;14.54;59.98;100363.94;4402548;32;20010;-92
2021/09/02 04:46:14;;;;;;;;;;;;;;;14.74;59.99;100375.38;4402771;32;19983;-92
2021/09/02 04:48:39;;;;;;;;;;;;;;;14.86;59.99;100378.41;4404968;32;19990;-91
2021/09/02 04:51:04;;;;;;;;;;;;;;;14.90;59.99;100380.00;4404510;32;19978;-92
2021/09/02 04:53:29;;;;;;;;;;;;;;;14.89;60.00;100375.66;4392159;32;20009;-91
2021/09/02 04:55:55;;;;;;;;;;;;;;;14.90;60.00;100366.88;4404576;32;28521;-90
2021/09/02 04:58:20;;;;;;;;;;;;;;;14.89;60.00;100370.41;4404419;32;20710;-90
2021/09/02 05:00:45;;;;;;;;;;;;;;;14.94;60.00;100374.59;4404492;32;19986;-89
2021/09/02 05:03:10;;;;;;;;;;;;;;;14.88;60.00;100371.34;4404663;32;20041;-91
2021/09/02 05:05:36;;;;;;;;;;;;;;;14.87;60.00;100369.63;4404343;32;20331;-91
2021/09/02 05:08:01;;;;;;;;;;;;;;;15.02;60.01;100375.13;4404642;32;19994;-90
2021/09/02 05:10:26;;;;;;;;;;;;;;;15.19;60.02;100376.22;4404368;32;20393;-91
2021/09/02 05:12:52;;;;;;;;;;;;;;;15.32;60.01;100375.63;4404397;32;19987;-91
2021/09/02 05:15:17;;;;;;;;;;;;;;;15.42;60.02;100375.28;4404442;32;20000;-90
2021/09/02 05:17:43;;;;;;;;;;;;;;;15.40;60.02;100375.34;4404606;32;19986;-91
2021/09/02 05:20:08;;;;;;;;;;;;;;;15.32;60.03;100369.53;4404576;32;20556;-91
2021/09/02 05:22:34;;;;;;;;;;;;;;;15.40;60.03;100379.72;4404674;32;19998;-90
2021/09/02 05:24:59;;;;;;;;;;;;;;;15.36;60.02;100376.34;4404157;32;20005;-91
2021/09/02 05:27:24;;;;;;;;;;;;;;;15.53;60.02;100373.03;4404170;32;19994;-90
2021/09/02 05:29:49;;;;;;;;;;;;;;;15.64;60.04;100369.06;4404092;32;19966;-89
2021/09/02 05:32:14;;;;;;;;;;;;;;;15.84;60.04;100372.59;4392632;32;25632;-92
2021/09/02 05:34:40;;;;;;;;;;;;;;;15.82;60.05;100377.06;4404028;32;24426;-90
2021/09/02 05:37:05;;;;;;;;;;;;;;;15.90;60.05;100377.59;4404175;32;20011;-90
2021/09/02 05:39:30;;;;;;;;;;;;;;;15.73;60.04;100377.47;4404401;32;20346;-91
2021/09/02 05:41:56;;;;;;;;;;;;;;;16.02;60.06;100377.03;4404223;32;20316;-90
2021/09/02 05:44:21;;;;;;;;;;;;;;;16.25;60.07;100374.22;4404367;32;19998;-92
2021/09/02 05:46:46;;;;;;;;;;;;;;;16.18;60.07;100391.19;4404120;32;20021;-90
2021/09/02 05:49:12;;;;;;;;;;;;;;;16.38;60.07;100381.56;4404033;32;19984;-91
2021/09/02 05:51:37;;;;;;;;;;;;;;;16.46;60.08;100385.53;4404364;32;20026;-90
2021/09/02 05:54:02;;;;;;;;;;;;;;;16.59;60.08;100385.84;4404340;32;20042;-90
2021/09/02 05:56:27;;;;;;;;;;;;;;;16.74;60.09;100382.50;4404180;32;20712;-89
2021/09/02 05:58:53;;;;;;;;;;;;;;;17.02;60.11;100375.91;4404103;32;19997;-89
2021/09/02 06:01:18;;;;;;;;;;;;;;;17.16;60.12;100369.06;4403644;32;19994;-89
2021/09/02 06:03:43;;;;;;;;;;;;;;;17.44;60.13;100368.53;4393052;32;20249;-89
2021/09/02 06:06:08;;;;;;;;;;;;;;;17.50;60.13;100367.38;4404833;32;19983;-90
2021/09/02 06:08:34;;;;;;;;;;;;;;;17.67;60.14;100363.88;4404540;32;20469;-89
2021/09/02 06:11:02;;;;;;;;;;;;;;;17.79;60.15;100360.66;4404359;32;19997;-90
2021/09/02 06:13:28;;;;;;;;;;;;;;;17.53;60.13;100364.62;4404303;32;20046;-90
2021/09/02 06:15:53;;;;;;;;;;;;;;;17.60;60.13;100368.63;4404203;32;20009;-89
2021/09/02 06:18:18;;;;;;;;;;;;;;;17.71;60.15;100376.00;4404041;32;20373;-91
2021/09/02 06:20:44;;;;;;;;;;;;;;;17.45;60.13;100375.50;4404178;32;20054;-92
2021/09/02 06:23:09;;;;;;;;;;;;;;;17.57;60.14;100376.69;4404347;32;19998;-91
2021/09/02 06:25:34;;;;;;;;;;;;;;;17.76;60.14;100371.38;4404217;32;20018;-92
2021/09/02 06:27:59;;;;;;;;;;;;;;;17.87;60.16;100376.06;4404191;32;20014;-92
2021/09/02 06:30:25;;;;;;;;;;;;;;;17.95;60.16;100376.50;4404032;32;20292;-91
2021/09/02 06:32:50;;;;;;;;;;;;;;;18.15;60.16;100372.81;4404331;32;19994;-91
2021/09/02 06:35:15;;;;;;;;;;;;;;;17.97;60.15;100367.59;4392661;32;20320;-91
2021/09/02 06:37:40;;;;;;;;;;;;;;;17.86;60.16;100375.22;4404002;32;20002;-91
2021/09/02 06:40:06;;;;;;;;;;;;;;;17.99;60.16;100367.53;4403472;32;24125;-90
2021/09/02 06:42:31;;;;;;;;;;;;;;;18.15;60.16;100364.91;4404012;32;19990;-90
2021/09/02 06:44:56;;;;;;;;;;;;;;;18.21;60.17;100360.16;4403912;32;19997;-91
2021/09/02 06:47:22;;;;;;;;;;;;;;;18.05;60.17;100351.41;4403730;32;19978;-91
2021/09/02 06:49:47;;;;;;;;;;;;;;;17.86;60.16;100361.19;4403495;32;22796;-89
2021/09/02 06:52:12;;;;;;;;;;;;;;;17.91;60.15;100356.53;4403635;32;21086;-90
2021/09/02 06:54:37;;;;;;;;;;;;;;;18.12;60.17;100360.66;4392625;32;19982;-91
2021/09/02 06:57:03;;;;;;;;;;;;;;;18.13;60.17;100358.87;4392321;32;19970;-90
2021/09/02 06:59:28;;;;;;;;;;;;;;;17.94;60.16;100362.47;4403093;32;21272;-91
2021/09/02 07:01:53;;;;;;;;;;;;;;;17.87;60.15;100366.37;4404169;32;19994;-92
2021/09/02 07:04:18;;;;;;;;;;;;;;;17.71;60.15;100366.31;4404110;32;20009;-92
2021/09/02 07:06:43;;;;;;;;;;;;;;;17.65;60.14;100369.22;4391007;32;19979;-91
2021/09/02 07:09:09;;;;;;;;;;;;;;;17.62;60.15;100369.41;4402864;32;20062;-90
2021/09/02 07:11:34;;;;;;;;;;;;;;;17.81;60.15;100373.75;4392290;32;20045;-91
2021/09/02 07:13:59;;;;;;;;;;;;;;;17.93;60.16;100381.00;4403618;32;20002;-90
2021/09/02 07:16:25;;;;;;;;;;;;;;;18.03;60.17;100372.56;4403854;32;19979;-90
2021/09/02 07:18:50;;;;;;;;;;;;;;;18.03;60.16;100369.06;4403809;32;20319;-90
2021/09/02 07:21:15;;;;;;;;;;;;;;;17.96;60.15;100375.56;4403621;32;20018;-90
2021/09/02 07:23:41;;;;;;;;;;;;;;;18.00;60.15;100362.19;4391158;32;20017;-90
2021/09/02 07:26:07;;;;;;;;;;;;;;;18.04;60.16;100374.25;4403365;32;20018;-90
2021/09/02 07:28:32;;;;;;;;;;;;;;;18.10;60.17;100384.47;4403398;32;19986;-90
2021/09/02 07:30:58;;;;;;;;;;;;;;;18.23;60.18;100399.63;4403337;32;19997;-90
2021/09/02 07:33:23;;;;;;;;;;;;;;;18.42;60.18;100400.31;4403196;32;20018;-90
2021/09/02 07:35:48;;;;;;;;;;;;;;;18.65;60.19;100401.75;4403321;32;20003;-91
2021/09/02 07:38:13;;;;;;;;;;;;;;;18.57;60.19;100403.94;4403287;32;20109;-89
2021/09/02 07:40:38;;;;;;;;;;;;;;;18.64;60.20;100410.59;4403551;32;19990;-90
2021/09/02 07:43:04;;;;;;;;;;;;;;;18.83;60.20;100411.28;4392319;32;20014;-91
2021/09/02 07:45:29;;;;;;;;;;;;;;;18.91;60.20;100403.78;4403158;32;19966;-88
2021/09/02 07:47:54;;;;;;;;;;;;;;;19.04;60.21;100401.31;4403270;32;20060;-89
2021/09/02 07:50:19;;;;;;;;;;;;;;;19.07;60.21;100400.28;4390573;32;19986;-89
2021/09/02 07:52:45;;;;;;;;;;;;;;;19.01;60.22;100398.84;4390571;32;20244;-88
2021/09/02 07:55:10;;;;;;;;;;;;;;;19.33;60.23;100404.94;4403411;32;19983;-88
2021/09/02 07:57:36;;;;;;;;;;;;;;;19.38;60.23;100404.66;4403489;32;20344;-88
2021/09/02 08:00:01;;;;;;;;;;;;;;;19.54;60.25;100403.72;4403037;32;19986;-88
2021/09/02 08:02:26;;;;;;;;;;;;;;;19.59;60.24;100404.28;4403264;32;20021;-90
2021/09/02 08:04:52;;;;;;;;;;;;;;;19.63;60.25;100412.88;4403224;32;20036;-88
2021/09/02 08:07:17;;;;;;;;;;;;;;;19.45;60.24;100408.66;4403158;32;20010;-89
2021/09/02 08:09:44;;;;;;;;;;;;;;;19.53;60.24;100409.06;4403163;32;20437;-88
2021/09/02 08:12:09;;;;;;;;;;;;;;;19.66;60.25;100402.16;4403109;32;19996;-88
2021/09/02 08:14:35;;;;;;;;;;;;;;;19.99;60.26;100401.06;4403123;32;19979;-90
2021/09/02 08:17:00;;;;;;;;;;;;;;;20.11;60.27;100406.47;4403039;32;20014;-88
2021/09/02 08:19:25;;;;;;;;;;;;;;;20.05;60.27;100404.19;4402337;32;30196;-88
2021/09/02 08:21:50;;;;;;;;;;;;;;;20.14;60.27;100408.94;4389889;32;23857;-89
2021/09/02 08:24:16;;;;;;;;;;;;;;;20.16;60.28;100399.09;4403127;32;19994;-89
2021/09/02 08:26:41;;;;;;;;;;;;;;;20.11;60.27;100410.88;4402793;32;20026;-88
2021/09/02 08:29:06;;;;;;;;;;;;;;;20.34;60.28;100418.25;4403024;32;20249;-89
2021/09/02 08:31:32;;;;;;;;;;;;;;;20.46;60.28;100425.47;4402942;32;20009;-90
2021/09/02 08:33:57;;;;;;;;;;;;;;;20.13;60.27;100416.94;4403007;32;20256;-90
2021/09/02 08:36:22;;;;;;;;;;;;;;;20.17;60.28;100418.47;4402984;32;20354;-87
2021/09/02 08:38:48;;;;;;;;;;;;;;;20.47;60.29;100408.66;4403128;32;19989;-89
2021/09/02 08:41:16;;;;;;;;;;;;;;;20.56;60.30;100409.87;4390682;32;20024;-90
2021/09/02 08:43:42;;;;;;;;;;;;;;;20.67;60.30;100411.84;4402856;32;19989;-89
2021/09/02 08:46:07;;;;;;;;;;;;;;;20.86;60.32;100400.94;4402839;32;20038;-89
2021/09/02 08:48:33;;;;;;;;;;;;;;;21.22;60.33;100401.19;4402933;32;19990;-89
2021/09/02 08:50:58;;;;;;;;;;;;;;;21.36;60.34;100397.69;4402654;32;19974;-89
2021/09/02 08:53:23;;;;;;;;;;;;;;;21.33;60.34;100403.19;4401932;32;31634;-90
2021/09/02 08:55:49;;;;;;;;;;;;;;;21.35;60.33;100402.13;4402572;32;20033;-90
2021/09/02 08:58:14;;;;;;;;;;;;;;;21.68;60.35;100403.47;4402598;32;20037;-91
2021/09/02 09:00:39;;;;;;;;;;;;;;;21.71;60.36;100404.09;4402578;32;19993;-89
2021/09/02 09:03:05;;;;;;;;;;;;;;;21.95;60.36;100395.41;4402037;32;25087;-91
2021/09/02 09:05:34;;;;;;;;;;;;;;;21.94;60.36;100396.37;4389816;32;20001;-90
2021/09/02 09:07:59;;;;;;;;;;;;;;;21.94;60.36;100396.37;4402599;32;20358;-90
2021/09/02 09:10:27;;;;;;;;;;;;;;;22.17;60.37;100403.63;4402405;32;20038;-91
2021/09/02 09:12:55;;;;;;;;;;;;;;;22.26;60.37;100407.44;4402542;32;19997;-89
2021/09/02 09:15:20;;;;;;;;;;;;;;;22.10;60.38;100402.34;4402439;32;20004;-89
2021/09/02 09:17:45;;;;;;;;;;;;;;;22.11;60.38;100409.34;4391057;32;19974;-90
2021/09/02 09:20:11;;;;;;;;;;;;;;;22.23;60.38;100403.19;4402538;32;20036;-89
2021/09/02 09:22:36;;;;;;;;;;;;;;;22.51;60.40;100411.88;4402451;32;20033;-89
2021/09/02 09:25:04;;;;;;;;;;;;;;;22.60;60.40;100403.25;4402254;32;20009;-90
2021/09/02 09:27:33;;;;;;;;;;;;;;;22.74;60.41;100403.13;4402470;32;20001;-89
2021/09/02 09:30:04;;;;;;;;;;;;;;;22.66;60.41;100397.50;4402344;32;19983;-89
2021/09/02 09:32:31;;;;;;;;;;;;;;;22.75;60.41;100403.97;4402647;32;20324;-90
2021/09/02 09:34:56;;;;;;;;;;;;;;;22.87;60.41;100388.00;4404317;32;20017;-90
2021/09/02 09:37:21;;;;;;;;;;;;;;;23.03;60.42;100384.25;4403912;32;23645;-89
2021/09/02 09:39:48;;;;;;;;;;;;;;;23.24;60.44;100380.84;4404282;32;20012;-91
2021/09/02 09:42:14;;;;;;;;;;;;;;;23.15;60.43;100386.81;4404222;32;19989;-89
2021/09/02 09:44:41;;;;;;;;;;;;;;;23.20;60.44;100391.81;4404330;32;19998;-91
2021/09/02 09:47:07;;;;;;;;;;;;;;;23.05;60.43;100380.50;4404250;32;20006;-90
2021/09/02 09:49:42;;;;;;;;;;;;;;;23.17;60.43;100384.91;4404302;32;19978;-91
2021/09/02 09:52:19;;;;;;;;;;;;;;;23.40;60.44;100387.66;4404297;32;19986;-89
2021/09/02 09:54:44;;;;;;;;;;;;;;;23.49;60.45;100382.50;4404346;32;20789;-90
2021/09/02 09:57:10;;;;;;;;;;;;;;;23.73;60.45;100378.97;4404395;32;19990;-89
2021/09/02 09:59:36;;;;;;;;;;;;;;;23.99;60.48;100393.75;4404110;32;20021;-89
2021/09/02 10:02:01;;;;;;;;;;;;;;;24.09;60.48;100388.56;4404392;32;19970;-90
2021/09/02 10:04:26;;;;;;;;;;;;;;;24.02;60.48;100377.56;4404180;32;19999;-91
2021/09/02 10:06:52;;;;;;;;;;;;;;;24.01;60.48;100383.00;4404330;32;20002;-89
2021/09/02 10:09:17;;;;;;;;;;;;;;;24.02;60.48;100369.59;4404167;32;19982;-90
2021/09/02 10:11:42;;;;;;;;;;;;;;;23.98;60.48;100375.28;4404111;32;20006;-89
2021/09/02 10:14:07;;;;;;;;;;;;;;;24.19;60.48;100371.78;4404243;32;19978;-90
2021/09/02 10:16:33;;;;;;;;;;;;;;;24.55;60.50;100374.31;4391393;32;20009;-90
2021/09/02 10:18:58;;;;;;;;;;;;;;;24.63;60.51;100380.72;4404101;32;20367;-89
2021/09/02 10:21:23;;;;;;;;;;;;;;;24.87;60.52;100371.72;4404142;32;19998;-91
2021/09/02 10:23:48;;;;;;;;;;;;;;;24.79;60.52;100369.66;4404028;32;20010;-89
2021/09/02 10:26:33;;;;;;;;;;;;;;;24.49;60.50;100386.31;4404018;32;20009;-90
2021/09/02 10:28:58;;;;;;;;;;;;;;;24.54;60.51;100380.59;4404124;32;20025;-90
2021/09/02 10:31:23;;;;;;;;;;;;;;;24.62;60.51;100383.53;4404178;32;20247;-91
2021/09/02 10:33:49;;;;;;;;;;;;;;;24.32;60.49;100389.44;4404592;32;20351;-89
2021/09/02 10:36:14;;;;;;;;;;;;;;;24.48;60.50;100376.63;4404449;32;20040;-89
2021/09/02 10:38:42;;;;;;;;;;;;;;;24.47;60.50;100386.44;4392672;32;19979;-89
2021/09/02 10:41:08;;;;;;;;;;;;;;;24.45;60.51;100383.03;4392583;32;19975;-91
2021/09/02 10:43:46;;;;;;;;;;;;;;;24.73;60.52;100379.00;4403396;32;20003;-91
2021/09/02 10:46:30;;;;;;;;;;;;;;;24.62;60.51;100379.03;4403692;32;20311;-90
2021/09/02 10:49:14;;;;;;;;;;;;;;;24.53;60.51;100376.25;4392504;32;19986;-89
2021/09/02 10:51:40;;;;;;;;;;;;;;;24.46;60.51;100379.41;4403940;32;19982;-92
2021/09/02 10:54:09;;;;;;;;;;;;;;;24.60;60.50;100380.94;4404162;32;19998;-89
2021/09/02 10:56:51;;;;;;;;;;;;;;;24.83;60.53;100379.09;4404131;32;19982;-89
2021/09/02 10:59:35;;;;;;;;;;;;;;;24.98;60.54;100391.16;4404036;32;19974;-89
2021/09/02 11:02:00;;;;;;;;;;;;;;;25.18;60.54;100376.25;4403661;32;19974;-89
2021/09/02 11:04:25;;;;;;;;;;;;;;;25.30;60.56;100372.53;4392744;32;20381;-90
2021/09/02 11:06:51;;;;;;;;;;;;;;;25.34;60.55;100375.81;4392462;32;19978;-90
2021/09/02 11:09:29;;;;;;;;;;;;;;;25.15;60.55;100384.50;4392733;32;19982;-90
2021/09/02 11:11:54;;;;;;;;;;;;;;;25.11;60.54;100383.06;4403904;32;19982;-90
2021/09/02 11:14:19;;;;;;;;;;;;;;;25.30;60.56;100391.19;4403587;32;20092;-89
2021/09/02 11:16:44;;;;;;;;;;;;;;;25.60;60.56;100378.97;4403737;32;20037;-90
2021/09/02 11:19:10;;;;;;;;;;;;;;;25.37;60.55;100383.56;4403994;32;19986;-91
2021/09/02 11:21:35;;;;;;;;;;;;;;;25.56;60.57;100378.38;4403570;32;23144;-90
2021/09/02 11:24:03;;;;;;;;;;;;;;;25.71;60.57;100376.25;4403818;32;19990;-91
2021/09/02 11:26:38;;;;;;;;;;;;;;;25.58;60.56;100376.44;4403766;32;20347;-90
2021/09/02 11:29:03;;;;;;;;;;;;;;;25.58;60.56;100375.59;4403444;32;19986;-89
2021/09/02 11:31:29;;;;;;;;;;;;;;;25.43;60.56;100380.38;4403302;32;19994;-90
2021/09/02 11:33:54;;;;;;;;;;;;;;;25.11;60.54;100395.53;4403606;32;20041;-89
2021/09/02 11:36:20;;;;;;;;;;;;;;;24.92;60.54;100393.50;4403588;32;19998;-91
2021/09/02 11:38:46;;;;;;;;;;;;;;;25.27;60.55;100386.13;4378614;32;803951;-90
2021/09/02 11:41:18;;;;;;;;;;;;;;;25.44;60.56;100378.56;4403726;32;19997;-91
2021/09/02 11:43:43;;;;;;;;;;;;;;;25.62;60.57;100382.34;4402806;32;20009;-90
2021/09/02 11:46:09;;;;;;;;;;;;;;;25.81;60.58;100381.66;4403390;32;20275;-91
2021/09/02 11:48:53;;;;;;;;;;;;;;;25.64;60.57;100396.37;4403582;32;20024;-90
2021/09/02 11:51:28;;;;;;;;;;;;;;;25.75;60.58;100380.34;4403420;32;19983;-90
2021/09/02 11:54:03;;;;;;;;;;;;;;;25.83;60.58;100385.03;4403608;32;20015;-90
2021/09/02 11:56:29;;;;;;;;;;;;;;;26.14;60.60;100370.72;4403099;32;20002;-90
2021/09/02 11:58:58;;;;;;;;;;;;;;;26.52;60.61;100362.06;4403410;32;20286;-91
2021/09/02 12:01:23;;;;;;;;;;;;;;;26.72;60.63;100360.25;4403120;32;20343;-91
2021/09/02 12:03:48;;;;;;;;;;;;;;;26.85;60.63;100355.50;4403032;32;20010;-91
2021/09/02 12:06:14;;;;;;;;;;;;;;;26.94;60.64;100351.16;4403105;32;19993;-90
2021/09/02 12:08:42;;;;;;;;;;;;;;;26.70;60.62;100354.22;4402321;32;31277;-90
2021/09/02 12:11:07;;;;;;;;;;;;;;;26.59;60.62;100355.19;4403305;32;20343;-90
2021/09/02 12:13:35;;;;;;;;;;;;;;;26.66;60.62;100352.81;4403264;32;20050;-91
2021/09/02 12:16:01;;;;;;;;;;;;;;;26.53;60.62;100355.75;4402861;32;20834;-90
2021/09/02 12:18:29;;;;;;;;;;;;;;;26.71;60.63;100361.25;4403194;32;19974;-90
2021/09/02 12:21:05;;;;;;;;;;;;;;;26.56;60.63;100357.28;4403381;32;19982;-90
2021/09/02 12:23:30;;;;;;;;;;;;;;;26.31;60.61;100351.44;4391966;32;20024;-91
2021/09/02 12:25:57;;;;;;;;;;;;;;;26.37;60.61;100355.41;4403255;32;20026;-90
2021/09/02 12:28:29;;;;;;;;;;;;;;;26.34;60.61;100350.34;4403327;32;19996;-89
2021/09/02 12:30:54;;;;;;;;;;;;;;;26.24;60.61;100358.25;4403223;32;19978;-91